Time;durP1;ratioP1;P1;durP2;ratioP2;P2;SDS_P1;SDS_P2;PMS_P1;PMS_P2;Temp;Humidity;BMP_temperature;BMP_pressure;BME280_temperature;BME280_humidity;BME280_pressure;Samples;Min_cycle;Max_cycle;Signal;HPM_P1;HPM_P2
2021/04/01 00:00:44;;;;;;;;;9.75;8.00;;;;;;;;3544506;39;111981;-78
2021/04/01 00:03:10;;;;;;;;;8.00;7.25;;;;;;;;3546111;39;113842;-78
2021/04/01 00:05:41;;;;;;;;;7.25;6.75;;;;;;;;3547090;39;114102;-78
2021/04/01 00:08:07;;;;;;;;;9.50;6.00;;;;;;;;3546062;39;113942;-78
2021/04/01 00:10:36;;;;;;;;;6.50;6.50;;;;;;;;3544588;39;113954;-79
2021/04/01 00:13:03;;;;;;;;;8.75;7.50;;;;;;;;3545399;39;111826;-79
2021/04/01 00:15:29;;;;;;;;;9.75;8.00;;;;;;;;3545468;39;113417;-79
2021/04/01 00:17:55;;;;;;;;;9.00;6.75;;;;;;;;3544273;39;114032;-79
2021/04/01 00:20:23;;;;;;;;;8.25;8.25;;;;;;;;3546231;39;112406;-79
2021/04/01 00:22:49;;;;;;;;;8.50;8.50;;;;;;;;3544382;39;113743;-79
2021/04/01 00:25:16;;;;;;;;;11.75;8.25;;;;;;;;3545423;39;114364;-79
2021/04/01 00:27:42;;;;;;;;;8.00;8.00;;;;;;;;3548897;39;112474;-79
2021/04/01 00:30:10;;;;;;;;;8.00;7.00;;;;;;;;3543724;39;114411;-79
2021/04/01 00:32:36;;;;;;;;;10.00;8.25;;;;;;;;3545684;39;111982;-78
2021/04/01 00:35:03;;;;;;;;;10.00;8.25;;;;;;;;3545169;39;113865;-79
2021/04/01 00:37:31;;;;;;;;;6.00;6.00;;;;;;;;3545022;39;114153;-78
2021/04/01 00:39:57;;;;;;;;;10.00;6.25;;;;;;;;3545469;39;112190;-78
2021/04/01 00:42:23;;;;;;;;;6.75;6.75;;;;;;;;3544662;39;113875;-77
2021/04/01 00:44:49;;;;;;;;;8.00;8.00;;;;;;;;3545402;39;113963;-77
2021/04/01 00:47:16;;;;;;;;;9.00;7.00;;;;;;;;3547124;39;112244;-77
2021/04/01 00:49:42;;;;;;;;;12.00;10.00;;;;;;;;3545667;39;115085;-78
2021/04/01 00:52:09;;;;;;;;;10.75;10.75;;;;;;;;3544546;39;112064;-78
2021/04/01 00:54:35;;;;;;;;;9.75;9.00;;;;;;;;3545406;39;113581;-77
2021/04/01 00:57:01;;;;;;;;;8.50;8.50;;;;;;;;3544537;39;113956;-77
2021/04/01 00:59:28;;;;;;;;;7.25;6.75;;;;;;;;3544843;39;112309;-77
2021/04/01 01:01:59;;;;;;;;;7.00;7.00;;;;;;;;3545681;39;113485;-78
2021/04/01 01:04:27;;;;;;;;;5.00;4.00;;;;;;;;3544460;39;115783;-76
2021/04/01 01:06:53;;;;;;;;;9.25;9.25;;;;;;;;3545072;39;111824;-77
2021/04/01 01:09:19;;;;;;;;;9.75;8.00;;;;;;;;3546724;39;113393;-77
2021/04/01 01:11:45;;;;;;;;;9.00;8.00;;;;;;;;3545804;39;111892;-78
2021/04/01 01:14:11;;;;;;;;;8.25;6.00;;;;;;;;3546143;39;113987;-79
2021/04/01 01:16:37;;;;;;;;;10.00;6.00;;;;;;;;3545176;39;113963;-77
2021/04/01 01:19:04;;;;;;;;;8.75;7.00;;;;;;;;3546856;39;111733;-77
2021/04/01 01:21:35;;;;;;;;;8.25;7.00;;;;;;;;3546659;39;113465;-77
2021/04/01 01:24:02;;;;;;;;;6.25;5.00;;;;;;;;3545494;39;114671;-79
2021/04/01 01:26:29;;;;;;;;;9.00;7.25;;;;;;;;3546875;39;113619;-78
2021/04/01 01:28:56;;;;;;;;;9.25;8.75;;;;;;;;3546651;39;113569;-79
2021/04/01 01:31:22;;;;;;;;;8.25;7.25;;;;;;;;3548138;39;115114;-78
2021/04/01 01:33:49;;;;;;;;;8.50;8.50;;;;;;;;3547114;39;113852;-77
2021/04/01 01:36:15;;;;;;;;;9.25;9.00;;;;;;;;3545256;39;114309;-79
2021/04/01 01:38:41;;;;;;;;;7.75;6.75;;;;;;;;3547665;39;112002;-79
2021/04/01 01:41:08;;;;;;;;;8.00;6.00;;;;;;;;3545734;39;113703;-79
2021/04/01 01:43:35;;;;;;;;;9.50;7.00;;;;;;;;3546227;39;114083;-79
2021/04/01 01:46:01;;;;;;;;;9.00;6.75;;;;;;;;3546677;39;111686;-76
2021/04/01 01:48:27;;;;;;;;;9.25;6.50;;;;;;;;3546489;39;113104;-78
2021/04/01 01:50:58;;;;;;;;;7.25;7.25;;;;;;;;3546124;39;114051;-81
2021/04/01 01:53:24;;;;;;;;;9.75;7.75;;;;;;;;3548724;39;112058;-80
2021/04/01 01:55:50;;;;;;;;;8.50;8.50;;;;;;;;3549089;39;114192;-80
2021/04/01 01:58:17;;;;;;;;;7.75;7.75;;;;;;;;3547256;39;111914;-78
2021/04/01 02:00:45;;;;;;;;;8.50;7.00;;;;;;;;3545360;39;113352;-79
2021/04/01 02:03:12;;;;;;;;;8.00;8.00;;;;;;;;3547115;39;114038;-79
2021/04/01 02:05:38;;;;;;;;;8.00;8.00;;;;;;;;3545615;39;111875;-78
2021/04/01 02:08:05;;;;;;;;;8.00;8.00;;;;;;;;3546902;39;113226;-79
2021/04/01 02:10:32;;;;;;;;;8.75;5.75;;;;;;;;3545567;39;114057;-79
2021/04/01 02:12:59;;;;;;;;;8.00;8.00;;;;;;;;3546015;39;112439;-79
2021/04/01 02:15:25;;;;;;;;;12.00;9.00;;;;;;;;3548757;39;113393;-78
2021/04/01 02:17:52;;;;;;;;;9.00;8.00;;;;;;;;3545537;39;111957;-79
2021/04/01 02:20:18;;;;;;;;;9.50;7.50;;;;;;;;3547166;39;113521;-79
2021/04/01 02:22:44;;;;;;;;;7.75;6.00;;;;;;;;3544748;39;114518;-78
2021/04/01 02:25:11;;;;;;;;;7.75;7.25;;;;;;;;3546930;39;112001;-77
2021/04/01 02:27:37;;;;;;;;;10.25;8.00;;;;;;;;3545372;39;113614;-77
2021/04/01 02:30:04;;;;;;;;;7.50;5.50;;;;;;;;3545622;39;114674;-78
2021/04/01 02:32:30;;;;;;;;;8.75;6.00;;;;;;;;3548445;39;112335;-79
2021/04/01 02:34:57;;;;;;;;;9.00;9.00;;;;;;;;3546054;39;113337;-79
2021/04/01 02:37:23;;;;;;;;;6.00;6.00;;;;;;;;3548518;39;113956;-79
2021/04/01 02:39:49;;;;;;;;;9.00;8.50;;;;;;;;3545511;39;113677;-78
2021/04/01 02:42:15;;;;;;;;;10.00;8.50;;;;;;;;3546359;39;113952;-78
2021/04/01 02:44:41;;;;;;;;;8.00;8.00;;;;;;;;3545282;39;111911;-79
2021/04/01 02:47:07;;;;;;;;;9.00;9.00;;;;;;;;3546757;39;113748;-78
2021/04/01 02:49:33;;;;;;;;;10.75;9.25;;;;;;;;3544732;39;114518;-78
2021/04/01 02:52:00;;;;;;;;;4.00;4.00;;;;;;;;3546237;39;111868;-78
2021/04/01 02:54:26;;;;;;;;;8.50;8.00;;;;;;;;3546175;39;113704;-77
2021/04/01 02:56:52;;;;;;;;;6.75;6.75;;;;;;;;3548015;39;113991;-76
2021/04/01 02:59:18;;;;;;;;;8.00;8.00;;;;;;;;3546761;39;113492;-78
2021/04/01 03:01:44;;;;;;;;;8.50;8.50;;;;;;;;3544702;39;113209;-77
2021/04/01 03:04:11;;;;;;;;;8.50;7.75;;;;;;;;3545235;39;111792;-76
2021/04/01 03:06:37;;;;;;;;;9.00;8.00;;;;;;;;3546345;39;112904;-77
2021/04/01 03:09:11;;;;;;;;;8.00;5.50;;;;;;;;3545399;39;114067;-78
2021/04/01 03:11:37;;;;;;;;;7.00;7.00;;;;;;;;3546258;39;111873;-78
2021/04/01 03:14:03;;;;;;;;;7.00;5.75;;;;;;;;3545207;39;113483;-76
2021/04/01 03:16:29;;;;;;;;;6.50;6.50;;;;;;;;3548389;39;114029;-77
2021/04/01 03:18:55;;;;;;;;;7.75;7.50;;;;;;;;3550178;39;111986;-77
2021/04/01 03:21:21;;;;;;;;;8.25;8.25;;;;;;;;3548581;39;114279;-75
2021/04/01 03:23:47;;;;;;;;;7.50;7.50;;;;;;;;3548041;39;112614;-78
2021/04/01 03:26:14;;;;;;;;;5.00;5.00;;;;;;;;3544742;39;113450;-76
2021/04/01 03:28:40;;;;;;;;;7.25;4.75;;;;;;;;3546115;39;114118;-78
2021/04/01 03:31:06;;;;;;;;;7.00;6.50;;;;;;;;3544763;39;112353;-78
2021/04/01 03:33:53;;;;;;;;;5.75;5.75;;;;;;;;3544999;39;113385;-79
2021/04/01 03:36:19;;;;;;;;;9.00;8.00;;;;;;;;3546394;39;114086;-77
2021/04/01 03:38:46;;;;;;;;;10.00;8.75;;;;;;;;3546415;39;111877;-78
2021/04/01 03:41:12;;;;;;;;;7.50;6.25;;;;;;;;3545023;39;115233;-78
2021/04/01 03:43:40;;;;;;;;;4.75;3.75;;;;;;;;3546021;39;111891;-78
2021/04/01 03:46:07;;;;;;;;;8.75;8.25;;;;;;;;3544244;39;113597;-77
2021/04/01 03:48:33;;;;;;;;;10.00;7.75;;;;;;;;3545288;39;114046;-76
2021/04/01 03:50:59;;;;;;;;;10.75;8.75;;;;;;;;3545169;39;111966;-78
2021/04/01 03:53:25;;;;;;;;;8.75;7.75;;;;;;;;3545310;39;113554;-77
2021/04/01 03:55:52;;;;;;;;;6.75;5.00;;;;;;;;3545329;39;114041;-77
2021/04/01 04:03:56;;;;;;;;;7.00;5.50;;;;;;;;3530595;39;113185;-79
2021/04/01 04:06:35;;;;;;;;;10.00;5.00;;;;;;;;3545723;39;113523;-78
2021/04/01 04:09:28;;;;;;;;;9.25;8.00;;;;;;;;3545106;39;114084;-79
2021/04/01 04:12:03;;;;;;;;;8.00;8.00;;;;;;;;3546450;39;112032;-79
2021/04/01 04:14:33;;;;;;;;;8.50;8.50;;;;;;;;3545577;39;113524;-79
2021/04/01 04:17:00;;;;;;;;;7.50;7.50;;;;;;;;3544539;39;113968;-79
2021/04/01 04:19:26;;;;;;;;;11.00;10.00;;;;;;;;3545483;39;111977;-78
2021/04/01 04:21:52;;;;;;;;;8.00;8.00;;;;;;;;3545609;39;113570;-79
2021/04/01 04:24:18;;;;;;;;;7.00;7.00;;;;;;;;3546476;39;114095;-79
2021/04/01 04:29:43;;;;;;;;;8.00;8.00;;;;;;;;3544569;39;113750;-79
2021/04/01 04:32:10;;;;;;;;;13.00;10.25;;;;;;;;3544276;39;111947;-79
2021/04/01 04:34:36;;;;;;;;;9.50;8.00;;;;;;;;3545685;39;114023;-78
2021/04/01 04:37:02;;;;;;;;;10.75;9.75;;;;;;;;3544481;39;114093;-79
2021/04/01 04:39:28;;;;;;;;;8.75;7.25;;;;;;;;3545570;39;111737;-79
2021/04/01 04:41:54;;;;;;;;;8.00;8.00;;;;;;;;3546312;39;113389;-79
2021/04/01 04:44:20;;;;;;;;;9.25;8.00;;;;;;;;3545496;39;114487;-79
2021/04/01 04:46:46;;;;;;;;;13.00;9.75;;;;;;;;3545923;39;112325;-79
2021/04/01 04:49:13;;;;;;;;;8.00;8.00;;;;;;;;3546824;39;113851;-79
2021/04/01 04:51:39;;;;;;;;;7.25;7.25;;;;;;;;3549597;39;112141;-79
2021/04/01 04:54:05;;;;;;;;;8.00;8.00;;;;;;;;3546666;39;113765;-79
2021/04/01 04:56:32;;;;;;;;;9.50;8.50;;;;;;;;3546679;39;114033;-71
2021/04/01 04:59:03;;;;;;;;;8.00;7.00;;;;;;;;3547081;39;111810;-72
2021/04/01 05:06:59;;;;;;;;;13.25;8.25;;;;;;;;3548030;39;111637;-71
2021/04/01 05:09:26;;;;;;;;;8.50;7.00;;;;;;;;3548800;39;113373;-72
2021/04/01 05:11:52;;;;;;;;;11.00;8.00;;;;;;;;3548845;39;112086;-72
2021/04/01 05:14:18;;;;;;;;;11.00;8.00;;;;;;;;3552292;39;114021;-73
2021/04/01 05:16:44;;;;;;;;;10.50;7.50;;;;;;;;3549965;39;114620;-73
2021/04/01 05:19:11;;;;;;;;;7.50;6.50;;;;;;;;3550876;39;111942;-73
2021/04/01 05:21:43;;;;;;;;;11.25;10.75;;;;;;;;3550649;39;114156;-74
2021/04/01 05:24:09;;;;;;;;;8.75;8.00;;;;;;;;3549625;39;114044;-73
2021/04/01 05:26:58;;;;;;;;;10.50;10.50;;;;;;;;3550459;39;112145;-72
2021/04/01 05:29:27;;;;;;;;;9.33;9.33;;;;;;;;3549411;39;113561;-72
2021/04/01 05:31:53;;;;;;;;;12.25;11.25;;;;;;;;3551641;39;112800;-73
2021/04/01 05:34:19;;;;;;;;;13.50;13.00;;;;;;;;3550462;39;113455;-72
2021/04/01 05:36:46;;;;;;;;;14.50;14.00;;;;;;;;3550180;39;113976;-73
2021/04/01 05:39:16;;;;;;;;;18.00;15.67;;;;;;;;3550477;39;112433;-72
2021/04/01 05:41:45;;;;;;;;;15.67;14.00;;;;;;;;3548961;39;113809;-71
2021/04/01 05:44:16;;;;;;;;;14.00;13.00;;;;;;;;3549599;39;113911;-72
2021/04/01 05:46:48;;;;;;;;;14.50;12.00;;;;;;;;3548930;39;112055;-74
2021/04/01 05:49:25;;;;;;;;;13.00;13.00;;;;;;;;3550410;39;113475;-73
2021/04/01 05:58:01;;;;;;;;;15.00;14.00;;;;;;;;3553109;39;114333;-71
2021/04/01 06:03:28;;;;;;;;;9.50;9.00;;;;;;;;3554879;39;113089;-73
2021/04/01 06:05:59;;;;;;;;;10.50;9.25;;;;;;;;3553752;39;114010;-72
2021/04/01 06:08:30;;;;;;;;;12.00;10.00;;;;;;;;3553129;39;111973;-72
2021/04/01 06:10:56;;;;;;;;;12.25;9.00;;;;;;;;3550279;39;112383;-73
2021/04/01 06:13:23;;;;;;;;;12.25;12.00;;;;;;;;3552625;39;113055;-71
2021/04/01 06:15:52;;;;;;;;;13.25;11.75;;;;;;;;3545640;39;111844;-72
2021/04/01 06:18:20;;;;;;;;;14.75;12.00;;;;;;;;3549240;39;113396;-73
2021/04/01 06:20:47;;;;;;;;;14.25;13.00;;;;;;;;3545346;39;112813;-72
2021/04/01 06:23:17;;;;;;;;;17.50;13.50;;;;;;;;3547389;39;113859;-72
2021/04/01 06:25:48;;;;;;;;;14.00;12.75;;;;;;;;3544743;39;114147;-74
2021/04/01 06:28:14;;;;;;;;;15.00;12.00;;;;;;;;3546626;39;112257;-73
2021/04/01 06:30:47;;;;;;;;;14.00;13.00;;;;;;;;3545111;39;113937;-74
2021/04/01 06:33:14;;;;;;;;;18.25;17.50;;;;;;;;3546522;39;114517;-71
2021/04/01 06:35:42;;;;;;;;;21.25;16.75;;;;;;;;3545178;39;111891;-73
2021/04/01 06:38:23;;;;;;;;;20.25;18.75;;;;;;;;3547052;39;113437;-77
2021/04/01 06:40:52;;;;;;;;;15.67;14.67;;;;;;;;3549572;39;114993;-78
2021/04/01 06:43:38;;;;;;;;;15.25;14.25;;;;;;;;3545376;39;113818;-77
2021/04/01 06:46:06;;;;;;;;;18.00;15.67;;;;;;;;3542191;39;114383;-78
2021/04/01 06:48:56;;;;;;;;;18.67;15.67;;;;;;;;3549029;39;112225;-77
2021/04/01 06:51:26;;;;;;;;;18.00;15.75;;;;;;;;3552704;39;113597;-79
2021/04/01 06:53:57;;;;;;;;;20.50;17.25;;;;;;;;3546580;39;114105;-78
2021/04/01 06:56:34;;;;;;;;;20.33;18.33;;;;;;;;3546123;39;112114;-77
2021/04/01 06:59:10;;;;;;;;;18.25;17.25;;;;;;;;3546540;39;112846;-79
2021/04/01 07:01:38;;;;;;;;;20.67;19.33;;;;;;;;3544336;39;114046;-80
2021/04/01 07:04:05;;;;;;;;;19.25;18.25;;;;;;;;3549237;39;112027;-80
2021/04/01 07:06:34;;;;;;;;;20.75;19.00;;;;;;;;3545089;39;114277;-77
2021/04/01 07:09:06;;;;;;;;;22.50;19.75;;;;;;;;3544805;39;111700;-76
2021/04/01 07:11:34;;;;;;;;;18.00;18.00;;;;;;;;3544990;39;115275;-76
2021/04/01 07:14:03;;;;;;;;;17.00;17.00;;;;;;;;3543386;39;113732;-76
2021/04/01 07:16:38;;;;;;;;;17.25;16.25;;;;;;;;3549400;39;112533;-76
2021/04/01 07:19:30;;;;;;;;;27.00;22.00;;;;;;;;3545750;39;115268;-75
2021/04/01 07:35:57;;;;;;;;;20.00;16.75;;;;;;;;3529250;39;112818;-73
2021/04/01 07:46:48;;;;;;;;;20.25;19.50;;;;;;;;3545472;39;111743;-75
2021/04/01 07:49:19;;;;;;;;;21.00;20.00;;;;;;;;3545977;39;113403;-77
2021/04/01 07:52:00;;;;;;;;;22.25;20.25;;;;;;;;3544881;39;111765;-76
2021/04/01 07:54:34;;;;;;;;;21.00;20.00;;;;;;;;3545557;39;113499;-78
2021/04/01 07:57:12;;;;;;;;;26.67;23.00;;;;;;;;3544579;39;115586;-78
2021/04/01 07:59:57;;;;;;;;;28.00;24.00;;;;;;;;3545144;39;111842;-79
2021/04/01 08:02:31;;;;;;;;;27.25;25.50;;;;;;;;3545525;39;114621;-77
2021/04/01 08:04:58;;;;;;;;;23.50;22.75;;;;;;;;3544503;39;112962;-77
2021/04/01 08:07:29;;;;;;;;;22.50;21.50;;;;;;;;3544141;39;111943;-79
2021/04/01 08:10:00;;;;;;;;;26.25;22.50;;;;;;;;3544724;39;113097;-75
2021/04/01 08:12:27;;;;;;;;;29.25;25.00;;;;;;;;3546204;39;113907;-75
2021/04/01 08:14:56;;;;;;;;;24.25;22.50;;;;;;;;3543623;39;113514;-76
2021/04/01 08:17:26;;;;;;;;;33.50;28.75;;;;;;;;3546010;39;114530;-76
2021/04/01 08:19:55;;;;;;;;;28.00;25.25;;;;;;;;3545176;39;113486;-75
2021/04/01 08:22:22;;;;;;;;;25.25;25.00;;;;;;;;3544924;39;113331;-73
2021/04/01 08:24:51;;;;;;;;;35.00;30.75;;;;;;;;3543278;39;114148;-74
2021/04/01 08:27:24;;;;;;;;;29.75;26.00;;;;;;;;3545371;39;112212;-73
2021/04/01 08:35:25;;;;;;;;;26.00;25.00;;;;;;;;3547658;39;112304;-77
2021/04/01 08:38:00;;;;;;;;;25.25;25.25;;;;;;;;3543760;39;113917;-77
2021/04/01 08:40:26;;;;;;;;;26.50;22.00;;;;;;;;3543545;39;112065;-79
2021/04/01 08:43:06;;;;;;;;;22.50;21.00;;;;;;;;3544345;39;113508;-79
2021/04/01 08:45:36;;;;;;;;;23.50;22.75;;;;;;;;3542619;39;114167;-82
2021/04/01 08:48:13;;;;;;;;;19.00;18.75;;;;;;;;3545083;39;111989;-80
2021/04/01 08:50:47;;;;;;;;;22.25;21.50;;;;;;;;3548017;39;113411;-81
2021/04/01 08:53:25;;;;;;;;;23.75;21.75;;;;;;;;3550341;39;114197;-80
2021/04/01 08:55:58;;;;;;;;;22.00;20.75;;;;;;;;3549990;39;112224;-81
2021/04/01 08:58:27;;;;;;;;;27.50;25.75;;;;;;;;3546870;39;113566;-85
2021/04/01 09:01:06;;;;;;;;;23.50;23.25;;;;;;;;3547452;39;111929;-84
2021/04/01 09:03:33;;;;;;;;;32.00;27.75;;;;;;;;3553911;39;113747;-84
2021/04/01 09:06:00;;;;;;;;;26.75;25.50;;;;;;;;3547945;39;114086;-84
2021/04/01 09:08:30;;;;;;;;;32.25;29.50;;;;;;;;3544508;39;113883;-79
2021/04/01 09:10:59;;;;;;;;;27.25;24.25;;;;;;;;3545192;39;113459;-82
2021/04/01 09:13:28;;;;;;;;;27.75;26.25;;;;;;;;3544208;39;114572;-80
2021/04/01 09:15:58;;;;;;;;;26.00;23.25;;;;;;;;3547797;39;111939;-85
2021/04/01 09:18:25;;;;;;;;;28.00;25.25;;;;;;;;3546359;39;114987;-75
2021/04/01 09:20:52;;;;;;;;;30.50;28.25;;;;;;;;3547176;39;112299;-76
2021/04/01 09:23:20;;;;;;;;;26.25;25.25;;;;;;;;3546611;39;113447;-82
2021/04/01 09:25:49;;;;;;;;;28.50;26.75;;;;;;;;3550372;39;113988;-85
2021/04/01 09:28:15;;;;;;;;;26.50;25.25;;;;;;;;3545034;39;112422;-83
2021/04/01 09:30:42;;;;;;;;;26.50;24.50;;;;;;;;3546285;39;113735;-87
2021/04/01 09:33:09;;;;;;;;;24.75;23.75;;;;;;;;3546221;39;114115;-80
2021/04/01 09:35:36;;;;;;;;;21.75;21.25;;;;;;;;3545731;39;112263;-82
2021/04/01 09:38:06;;;;;;;;;27.75;27.75;;;;;;;;3547329;39;113428;-77
2021/04/01 09:40:33;;;;;;;;;31.50;27.75;;;;;;;;3548364;39;114002;-79
2021/04/01 09:43:13;;;;;;;;;28.67;24.00;;;;;;;;3552430;39;113715;-82
2021/04/01 09:45:40;;;;;;;;;25.67;25.00;;;;;;;;3549670;39;114268;-82
2021/04/01 09:48:06;;;;;;;;;30.67;27.67;;;;;;;;3545838;39;113108;-83
2021/04/01 09:50:33;;;;;;;;;24.67;24.00;;;;;;;;3546375;39;113381;-80
2021/04/01 09:53:00;;;;;;;;;23.33;22.33;;;;;;;;3546135;39;114234;-83
2021/04/01 09:55:35;;;;;;;;;31.67;28.67;;;;;;;;3546871;39;111964;-82
2021/04/01 09:58:02;;;;;;;;;22.00;20.67;;;;;;;;3546176;39;113420;-81
2021/04/01 10:00:37;;;;;;;;;23.67;21.00;;;;;;;;3545961;39;114068;-78
2021/04/01 10:03:05;;;;;;;;;30.33;27.33;;;;;;;;3548536;39;112310;-76
2021/04/01 10:05:39;;;;;;;;;20.00;19.67;;;;;;;;3548267;39;113883;-75
2021/04/01 10:08:07;;;;;;;;;25.33;25.33;;;;;;;;3546560;39;112503;-77
2021/04/01 10:10:35;;;;;;;;;21.67;20.33;;;;;;;;3547248;39;113782;-79
2021/04/01 10:13:02;;;;;;;;;24.00;23.67;;;;;;;;3549106;39;114093;-82
2021/04/01 10:15:29;;;;;;;;;26.33;23.00;;;;;;;;3553849;39;111820;-75
2021/04/01 10:17:55;;;;;;;;;22.67;21.67;;;;;;;;3552939;39;114367;-79
2021/04/01 10:20:22;;;;;;;;;27.67;27.67;;;;;;;;3548489;39;113292;-76
2021/04/01 10:22:48;;;;;;;;;29.00;26.67;;;;;;;;3546436;39;111780;-80
2021/04/01 10:25:17;;;;;;;;;25.67;25.67;;;;;;;;3547751;39;113046;-76
2021/04/01 10:27:50;;;;;;;;;30.67;27.33;;;;;;;;3546619;39;111811;-78
2021/04/01 10:30:17;;;;;;;;;28.67;26.67;;;;;;;;3547245;39;113661;-81
2021/04/01 10:32:50;;;;;;;;;29.67;27.33;;;;;;;;3548146;39;114009;-80
2021/04/01 10:35:17;;;;;;;;;26.25;26.25;;;;;;;;3545852;39;111856;-79
2021/04/01 10:37:46;;;;;;;;;29.75;26.50;;;;;;;;3546278;39;113497;-80
2021/04/01 10:40:14;;;;;;;;;30.25;28.75;;;;;;;;3544073;39;114034;-79
2021/04/01 10:42:42;;;;;;;;;28.25;26.50;;;;;;;;3546352;39;113270;-75
2021/04/01 10:45:12;;;;;;;;;25.25;24.00;;;;;;;;3550377;39;114612;-73
2021/04/01 10:47:57;;;;;;;;;26.00;25.50;;;;;;;;3547891;39;114052;-74
2021/04/01 10:50:26;;;;;;;;;19.75;19.25;;;;;;;;3546630;39;113425;-75
2021/04/01 10:52:53;;;;;;;;;28.00;27.25;;;;;;;;3548354;39;113860;-74
2021/04/01 10:55:21;;;;;;;;;26.75;24.75;;;;;;;;3545992;39;112713;-73
2021/04/01 10:57:47;;;;;;;;;28.75;24.75;;;;;;;;3551630;39;112157;-76
2021/04/01 11:00:15;;;;;;;;;20.00;20.00;;;;;;;;3552805;39;113813;-76
2021/04/01 11:02:44;;;;;;;;;23.75;22.75;;;;;;;;3553486;39;112997;-75
2021/04/01 11:05:14;;;;;;;;;22.75;22.00;;;;;;;;3552048;39;113921;-76
2021/04/01 11:07:46;;;;;;;;;19.50;19.50;;;;;;;;3552038;39;114428;-70
2021/04/01 11:10:17;;;;;;;;;16.00;14.75;;;;;;;;3548909;39;111934;-70
2021/04/01 11:23:02;;;;;;;;;14.75;14.00;;;;;;;;3586647;39;111804;-69
2021/04/01 21:10:53;;;;;;;;;11.25;8.75;;;;;;;;3574431;39;112019;-82
2021/04/01 21:13:19;;;;;;;;;10.50;9.75;;;;;;;;3563896;39;114327;-78
2021/04/01 21:15:47;;;;;;;;;10.75;10.00;;;;;;;;3563129;39;112105;-78
2021/04/01 21:18:14;;;;;;;;;9.75;7.00;;;;;;;;3563387;39;113412;-81
2021/04/01 21:20:42;;;;;;;;;10.50;9.25;;;;;;;;3561981;39;114042;-82
2021/04/01 21:23:08;;;;;;;;;10.50;10.00;;;;;;;;3562580;39;112930;-82
2021/04/01 21:25:36;;;;;;;;;7.00;7.00;;;;;;;;3564163;39;113418;-77
2021/04/01 21:28:05;;;;;;;;;9.50;7.75;;;;;;;;3410141;31;115273;-80
2021/04/01 21:30:33;;;;;;;;;6.75;6.00;;;;;;;;3213422;31;112219;-80
2021/04/01 21:32:59;;;;;;;;;10.25;10.00;;;;;;;;3543052;39;114042;-79
2021/04/01 21:35:25;;;;;;;;;9.25;9.25;;;;;;;;3485658;31;112006;-78
2021/04/01 21:37:52;;;;;;;;;9.25;9.25;;;;;;;;3542602;39;113505;-77
2021/04/01 21:40:19;;;;;;;;;11.00;9.75;;;;;;;;3542398;39;114120;-78
2021/04/01 21:42:46;;;;;;;;;12.25;10.00;;;;;;;;3543086;39;112200;-79
2021/04/01 21:45:17;;;;;;;;;10.50;10.00;;;;;;;;3542199;39;113348;-78
2021/04/01 21:47:47;;;;;;;;;12.75;10.50;;;;;;;;3542936;39;114227;-79
2021/04/01 21:50:14;;;;;;;;;12.50;10.50;;;;;;;;3542227;39;111871;-77
2021/04/01 21:52:40;;;;;;;;;7.00;6.00;;;;;;;;3545886;39;113410;-83
2021/04/01 21:55:07;;;;;;;;;10.00;8.50;;;;;;;;3542244;39;111959;-81
2021/04/01 21:57:33;;;;;;;;;12.50;10.00;;;;;;;;3543450;39;113478;-81
2021/04/01 22:00:01;;;;;;;;;9.25;9.25;;;;;;;;3542956;39;114807;-80
2021/04/01 22:02:28;;;;;;;;;10.25;10.00;;;;;;;;3544440;39;114102;-79
2021/04/01 22:04:54;;;;;;;;;9.75;9.00;;;;;;;;3543704;39;112749;-80
2021/04/01 22:07:20;;;;;;;;;12.75;10.00;;;;;;;;3542840;39;114155;-83
2021/04/01 22:09:46;;;;;;;;;10.75;10.00;;;;;;;;3543076;39;112550;-79
2021/04/01 22:12:12;;;;;;;;;11.00;6.25;;;;;;;;3545069;39;114329;-77
2021/04/01 22:14:38;;;;;;;;;9.25;9.25;;;;;;;;3544418;39;114227;-76
2021/04/01 22:17:05;;;;;;;;;7.50;7.50;;;;;;;;3544416;39;114991;-77
2021/04/01 22:19:31;;;;;;;;;5.25;5.25;;;;;;;;3541977;39;113948;-76
2021/04/01 22:21:58;;;;;;;;;11.75;6.50;;;;;;;;3537600;39;112171;-76
2021/04/01 22:24:24;;;;;;;;;11.75;10.00;;;;;;;;3536198;39;113380;-77
2021/04/01 22:26:50;;;;;;;;;12.00;9.00;;;;;;;;3535459;39;114109;-76
2021/04/01 22:29:16;;;;;;;;;12.00;10.25;;;;;;;;3536921;39;111978;-75
2021/04/01 22:31:42;;;;;;;;;11.00;11.00;;;;;;;;3535598;39;113609;-78
2021/04/01 22:34:08;;;;;;;;;10.25;10.25;;;;;;;;3536850;39;113971;-76
2021/04/01 22:36:35;;;;;;;;;11.50;11.00;;;;;;;;3539979;39;112108;-77
2021/04/01 22:39:01;;;;;;;;;11.50;9.25;;;;;;;;3534907;39;114735;-78
2021/04/01 22:41:29;;;;;;;;;11.50;10.00;;;;;;;;3536898;39;111894;-78
2021/04/01 22:43:56;;;;;;;;;12.25;9.75;;;;;;;;3536006;39;113801;-78
2021/04/01 22:46:23;;;;;;;;;12.00;9.50;;;;;;;;3536162;39;114005;-78
2021/04/01 22:48:49;;;;;;;;;9.25;8.50;;;;;;;;3539226;39;111769;-76
2021/04/01 22:51:15;;;;;;;;;14.25;10.25;;;;;;;;3536664;39;113594;-78
2021/04/01 22:53:42;;;;;;;;;5.00;4.00;;;;;;;;3535066;39;114267;-77
2021/04/01 22:56:08;;;;;;;;;11.00;10.75;;;;;;;;3536905;39;111946;-77
2021/04/01 22:58:35;;;;;;;;;14.50;12.25;;;;;;;;3539652;39;113534;-78
2021/04/01 23:01:01;;;;;;;;;10.50;10.50;;;;;;;;3535458;39;112222;-77
2021/04/01 23:03:27;;;;;;;;;11.25;10.75;;;;;;;;3536341;39;113993;-77
2021/04/01 23:05:53;;;;;;;;;11.00;11.00;;;;;;;;3535364;39;114399;-78
2021/04/01 23:08:20;;;;;;;;;11.25;10.75;;;;;;;;3535896;39;111799;-77
2021/04/01 23:10:49;;;;;;;;;10.75;10.75;;;;;;;;3535969;39;113586;-77
2021/04/01 23:13:16;;;;;;;;;10.50;10.00;;;;;;;;3535419;39;113965;-77
2021/04/01 23:15:43;;;;;;;;;14.25;10.00;;;;;;;;3536291;39;111818;-76
2021/04/01 23:18:09;;;;;;;;;13.50;12.00;;;;;;;;3535405;39;113758;-78
2021/04/01 23:20:36;;;;;;;;;14.00;11.50;;;;;;;;3538639;39;111844;-80
2021/04/01 23:25:52;;;;;;;;;11.00;9.75;;;;;;;;3535159;39;113136;-77
2021/04/01 23:28:18;;;;;;;;;11.00;11.00;;;;;;;;3536828;39;111873;-78
2021/04/01 23:30:47;;;;;;;;;13.00;10.75;;;;;;;;3536461;39;113720;-78
2021/04/01 23:33:13;;;;;;;;;10.50;10.00;;;;;;;;3535614;39;113981;-78
2021/04/01 23:35:40;;;;;;;;;8.25;8.25;;;;;;;;3535059;39;111884;-77
2021/04/01 23:38:09;;;;;;;;;8.75;8.00;;;;;;;;3536703;39;113754;-78
2021/04/01 23:40:35;;;;;;;;;12.25;10.50;;;;;;;;3539031;39;114428;-79
2021/04/01 23:43:02;;;;;;;;;10.75;10.50;;;;;;;;3534942;39;113321;-78
2021/04/01 23:45:30;;;;;;;;;9.00;9.00;;;;;;;;3536100;39;114060;-76
2021/04/01 23:47:56;;;;;;;;;12.75;11.25;;;;;;;;3535400;39;112044;-78
2021/04/01 23:50:23;;;;;;;;;10.50;10.00;;;;;;;;3535724;39;113568;-78
2021/04/01 23:52:49;;;;;;;;;9.00;9.00;;;;;;;;3536297;39;114445;-78
2021/04/01 23:55:16;;;;;;;;;11.00;11.00;;;;;;;;3536178;39;111930;-78
2021/04/01 23:57:42;;;;;;;;;9.25;9.00;;;;;;;;3535274;39;113944;-78
